Time;durP1;ratioP1;P1;durP2;ratioP2;P2;SDS_P1;SDS_P2;PMS_P1;PMS_P2;Temp;Humidity;BMP_temperature;BMP_pressure;BME280_temperature;BME280_humidity;BME280_pressure;Samples;Min_cycle;Max_cycle;Signal;HPM_P1;HPM_P2
2022/10/09 00:01:15;;;;;;;17.17;4.40;;;7.10;98.30;;;;;;5043423;28;20041;-79
2022/10/09 00:03:43;;;;;;;15.73;4.07;;;7.00;98.30;;;;;;5036977;28;20025;-78
2022/10/09 00:06:11;;;;;;;8.90;3.80;;;7.00;98.30;;;;;;5045877;28;20468;-78
2022/10/09 00:08:44;;;;;;;17.80;4.32;;;6.90;98.30;;;;;;5047617;28;20509;-78
2022/10/09 00:11:17;;;;;;;19.08;5.50;;;6.90;98.30;;;;;;5031688;28;20045;-78
2022/10/09 00:13:42;;;;;;;19.00;4.97;;;6.80;98.40;;;;;;5049092;28;20111;-78
2022/10/09 00:16:10;;;;;;;18.00;4.60;;;6.80;98.40;;;;;;5043044;28;20093;-78
2022/10/09 00:18:36;;;;;;;16.52;4.78;;;6.80;98.40;;;;;;5042772;28;20130;-78
2022/10/09 00:21:02;;;;;;;14.68;4.40;;;6.80;98.50;;;;;;5046657;28;20091;-78
2022/10/09 00:23:28;;;;;;;10.93;3.92;;;6.80;98.50;;;;;;5046472;28;20383;-78
2022/10/09 00:26:00;;;;;;;21.90;5.05;;;6.70;98.40;;;;;;5047408;28;20068;-78
2022/10/09 00:28:27;;;;;;;17.55;4.50;;;6.70;98.50;;;;;;5048979;28;20036;-78
2022/10/09 00:30:53;;;;;;;19.15;4.47;;;6.70;98.60;;;;;;5043369;28;20531;-78
2022/10/09 00:33:19;;;;;;;15.73;4.68;;;6.60;98.50;;;;;;5047942;28;20798;-78
2022/10/09 00:35:45;;;;;;;9.93;4.40;;;6.60;98.60;;;;;;5048933;28;20136;-78
2022/10/09 00:38:11;;;;;;;19.25;4.50;;;6.60;98.60;;;;;;5037919;28;20029;-78
2022/10/09 00:40:37;;;;;;;12.40;4.20;;;6.60;98.70;;;;;;5046012;28;20487;-78
2022/10/09 00:43:05;;;;;;;17.40;4.63;;;6.60;98.70;;;;;;5049859;28;20037;-78
2022/10/09 00:45:31;;;;;;;14.18;4.40;;;6.60;98.70;;;;;;5048147;28;20053;-78
2022/10/09 00:48:03;;;;;;;17.98;4.72;;;6.60;98.70;;;;;;5044267;28;20130;-79
2022/10/09 00:50:41;;;;;;;17.52;4.53;;;6.60;98.70;;;;;;5047106;28;20044;-78
2022/10/09 00:53:08;;;;;;;13.27;4.68;;;6.60;98.80;;;;;;5041677;28;20033;-80
2022/10/09 00:55:36;;;;;;;20.48;4.28;;;6.60;98.90;;;;;;5046318;28;20528;-79
2022/10/09 00:58:01;;;;;;;14.80;4.15;;;6.60;98.80;;;;;;5045387;28;20146;-79
2022/10/09 01:00:27;;;;;;;19.85;4.45;;;6.70;98.90;;;;;;5036096;28;20083;-79
2022/10/09 01:02:53;;;;;;;23.83;4.47;;;6.70;98.80;;;;;;5045743;28;20103;-79
2022/10/09 01:05:32;;;;;;;15.27;4.25;;;6.70;99.00;;;;;;5044860;28;21232;-79
2022/10/09 01:08:24;;;;;;;15.27;4.40;;;6.70;98.90;;;;;;5042500;28;20029;-79
2022/10/09 01:11:04;;;;;;;23.77;4.82;;;6.60;98.80;;;;;;5037022;28;20453;-79
2022/10/09 01:13:43;;;;;;;13.48;4.38;;;6.60;98.90;;;;;;5041639;28;20025;-79
2022/10/09 01:16:20;;;;;;;13.70;3.50;;;6.60;98.80;;;;;;5038720;28;20025;-79
2022/10/09 01:19:13;;;;;;;14.73;4.40;;;6.50;98.80;;;;;;5043476;28;20040;-78
2022/10/09 01:22:13;;;;;;;11.32;3.83;;;6.50;98.90;;;;;;5048165;28;20045;-79
2022/10/09 01:24:46;;;;;;;14.25;4.15;;;6.50;99.00;;;;;;5007590;28;20060;-78
2022/10/09 01:27:22;;;;;;;15.02;4.03;;;6.60;99.10;;;;;;5035370;28;20195;-78
2022/10/09 01:29:52;;;;;;;15.07;4.40;;;6.60;99.00;;;;;;5036380;28;20053;-78
2022/10/09 01:32:22;;;;;;;15.52;4.38;;;6.60;99.10;;;;;;5045854;28;20494;-78
2022/10/09 01:34:49;;;;;;;12.60;4.13;;;6.60;99.10;;;;;;5048086;28;20024;-78
2022/10/09 01:37:17;;;;;;;17.30;4.30;;;6.60;99.00;;;;;;5047332;28;20114;-78
2022/10/09 01:39:44;;;;;;;12.63;4.15;;;6.50;99.00;;;;;;5043159;28;20524;-79
2022/10/09 01:42:12;;;;;;;15.95;4.93;;;6.60;99.10;;;;;;5045647;28;20033;-79
2022/10/09 01:44:38;;;;;;;15.77;3.83;;;6.60;99.10;;;;;;5045915;28;20029;-79
2022/10/09 01:47:05;;;;;;;15.52;4.57;;;6.60;99.20;;;;;;5035169;28;20033;-79
2022/10/09 01:49:42;;;;;;;17.73;4.38;;;6.60;99.10;;;;;;5033303;28;20055;-79
2022/10/09 01:52:31;;;;;;;21.30;4.15;;;6.60;99.20;;;;;;5038030;28;20040;-79
2022/10/09 01:55:17;;;;;;;19.75;4.50;;;6.60;99.10;;;;;;5036151;28;20029;-78
2022/10/09 01:58:17;;;;;;;13.88;4.03;;;6.60;99.20;;;;;;5036520;28;20033;-79
2022/10/09 02:01:12;;;;;;;14.90;4.88;;;6.50;99.10;;;;;;5036577;28;20040;-79
2022/10/09 02:03:41;;;;;;;13.07;4.40;;;6.50;99.10;;;;;;5034599;28;20200;-78
2022/10/09 02:06:10;;;;;;;15.65;4.28;;;6.50;99.10;;;;;;5045576;28;20112;-79
2022/10/09 02:08:37;;;;;;;13.70;4.60;;;6.40;99.10;;;;;;5030060;28;20030;-78
2022/10/09 02:11:03;;;;;;;19.25;4.78;;;6.40;99.10;;;;;;5038362;28;20029;-78
2022/10/09 02:13:32;;;;;;;22.40;4.90;;;6.40;99.20;;;;;;5041663;28;20037;-79
2022/10/09 02:16:04;;;;;;;19.50;4.70;;;6.40;99.10;;;;;;5047591;28;20044;-79
2022/10/09 02:18:54;;;;;;;18.10;4.68;;;6.50;99.30;;;;;;5045296;28;20064;-78
2022/10/09 02:21:35;;;;;;;16.40;4.95;;;6.60;99.40;;;;;;5047183;28;20357;-79
2022/10/09 02:24:02;;;;;;;;;;;6.60;99.30;;;;;;5047259;28;20033;-79
2022/10/09 02:26:28;;;;;;;14.85;4.13;;;6.50;99.20;;;;;;5039849;28;19924;-79
2022/10/09 02:28:53;;;;;;;18.38;4.75;;;6.50;99.30;;;;;;5047185;28;20056;-80
2022/10/09 02:31:28;;;;;;;20.67;4.93;;;6.50;99.30;;;;;;5044676;28;20055;-79
2022/10/09 02:33:55;;;;;;;15.68;4.78;;;6.50;99.30;;;;;;5047235;28;20041;-79
2022/10/09 02:36:21;;;;;;;16.08;4.93;;;6.50;99.30;;;;;;5047490;28;20021;-79
2022/10/09 02:38:46;;;;;;;24.00;5.43;;;6.50;99.30;;;;;;5032786;28;20071;-79
2022/10/09 02:41:12;;;;;;;20.00;4.68;;;6.50;99.30;;;;;;5045405;28;20182;-79
2022/10/09 02:43:37;;;;;;;27.73;5.55;;;6.50;99.20;;;;;;5040877;28;20088;-79
2022/10/09 02:46:03;;;;;;;14.32;4.78;;;6.40;99.30;;;;;;5044205;28;20025;-79
2022/10/09 02:48:28;;;;;;;18.23;5.55;;;6.40;99.20;;;;;;5046537;28;20485;-79
2022/10/09 02:50:54;;;;;;;14.95;4.25;;;6.40;99.30;;;;;;5046412;28;20099;-78
2022/10/09 02:53:19;;;;;;;23.40;5.30;;;6.30;99.20;;;;;;5041775;28;20109;-79
2022/10/09 02:55:45;;;;;;;24.50;6.10;;;6.20;99.30;;;;;;5032454;28;20394;-79
2022/10/09 02:58:10;;;;;;;11.95;4.88;;;6.20;99.30;;;;;;5046429;28;20040;-79
2022/10/09 03:00:37;;;;;;;25.35;6.07;;;6.30;99.30;;;;;;5041235;28;20049;-78
2022/10/09 03:03:02;;;;;;;21.52;5.40;;;6.30;99.40;;;;;;5038112;28;20087;-78
2022/10/09 03:05:28;;;;;;;18.40;5.22;;;6.30;99.40;;;;;;5047570;28;20571;-79
2022/10/09 03:07:53;;;;;;;13.25;4.95;;;6.30;99.30;;;;;;5048912;28;20060;-79
2022/10/09 03:10:19;;;;;;;20.05;5.50;;;6.20;99.40;;;;;;5042096;28;20836;-78
2022/10/09 03:12:45;;;;;;;14.45;4.82;;;6.20;99.30;;;;;;5047739;28;20098;-78
2022/10/09 03:15:11;;;;;;;22.80;6.22;;;6.10;99.20;;;;;;5049924;28;20037;-78
2022/10/09 03:17:37;;;;;;;22.48;5.95;;;6.10;99.30;;;;;;5048646;28;20131;-78
2022/10/09 03:20:03;;;;;;;16.48;5.80;;;6.00;99.30;;;;;;5040958;28;20120;-79
2022/10/09 03:22:29;;;;;;;20.20;5.88;;;6.00;99.40;;;;;;5047251;28;20048;-80
2022/10/09 03:24:54;;;;;;;14.70;5.50;;;6.00;99.50;;;;;;5049604;28;20037;-79
2022/10/09 03:27:20;;;;;;;15.18;5.40;;;5.90;99.30;;;;;;5049939;28;20105;-79
2022/10/09 03:29:45;;;;;;;27.27;5.90;;;6.00;99.50;;;;;;5036318;28;20140;-79
2022/10/09 03:32:11;;;;;;;15.95;5.55;;;6.00;99.50;;;;;;5047053;28;20037;-78
2022/10/09 03:34:37;;;;;;;23.73;5.75;;;6.00;99.50;;;;;;5049340;28;20033;-78
2022/10/09 03:37:03;;;;;;;17.65;6.30;;;6.10;99.50;;;;;;5050788;28;20039;-79
2022/10/09 03:39:29;;;;;;;26.48;6.25;;;6.00;99.50;;;;;;5037014;28;20025;-79
2022/10/09 03:41:54;;;;;;;20.42;6.07;;;6.00;99.50;;;;;;5049355;28;20041;-79
2022/10/09 03:44:19;;;;;;;24.45;6.18;;;6.00;99.50;;;;;;5050003;28;20025;-78
2022/10/09 03:46:45;;;;;;;22.38;6.40;;;5.90;99.40;;;;;;5047367;28;20682;-78
2022/10/09 03:49:11;;;;;;;22.25;6.15;;;5.90;99.50;;;;;;5036531;28;20461;-78
2022/10/09 03:51:37;;;;;;;19.25;6.70;;;5.90;99.50;;;;;;5050729;28;20475;-79
2022/10/09 03:54:02;;;;;;;22.92;6.50;;;5.90;99.50;;;;;;5047137;28;20043;-80
2022/10/09 03:56:28;;;;;;;25.13;6.75;;;5.80;99.50;;;;;;5036958;28;20060;-79
2022/10/09 03:58:53;;;;;;;17.25;6.25;;;5.70;99.40;;;;;;5049721;28;20047;-79
2022/10/09 04:01:19;;;;;;;24.92;6.97;;;5.70;99.50;;;;;;5036612;28;20311;-80
2022/10/09 04:03:44;;;;;;;26.45;6.55;;;5.80;99.70;;;;;;5050252;28;20044;-79
2022/10/09 04:06:10;;;;;;;21.73;6.35;;;5.80;99.60;;;;;;5048666;28;20028;-79
2022/10/09 04:08:35;;;;;;;22.98;6.30;;;5.80;99.70;;;;;;5050231;28;20056;-78
2022/10/09 04:11:02;;;;;;;26.30;6.55;;;5.80;99.70;;;;;;5045164;28;20416;-79
2022/10/09 04:13:27;;;;;;;21.20;7.13;;;5.80;99.70;;;;;;5036270;28;20427;-79
2022/10/09 04:15:53;;;;;;;21.00;6.65;;;5.80;99.70;;;;;;5048092;28;20028;-79
2022/10/09 04:18:19;;;;;;;18.25;6.15;;;5.80;99.70;;;;;;5050063;28;20119;-79
2022/10/09 04:20:52;;;;;;;28.70;7.03;;;5.70;99.60;;;;;;5042225;28;20100;-79
2022/10/09 04:23:20;;;;;;;16.83;5.13;;;5.70;99.60;;;;;;5038892;28;20045;-79
2022/10/09 04:25:45;;;;;;;19.20;6.90;;;5.80;99.70;;;;;;5043503;28;20037;-79
2022/10/09 04:28:11;;;;;;;24.02;6.90;;;5.70;99.60;;;;;;5052262;28;20070;-78
2022/10/09 04:30:37;;;;;;;19.20;6.88;;;5.70;99.70;;;;;;5049252;28;20087;-68
2022/10/09 04:33:02;;;;;;;18.08;6.50;;;5.70;99.70;;;;;;5048208;28;20064;-68
2022/10/09 04:35:28;;;;;;;24.00;6.05;;;5.60;99.60;;;;;;5048678;28;20029;-67
2022/10/09 04:37:53;;;;;;;24.42;6.90;;;5.60;99.70;;;;;;5034329;28;20033;-67
2022/10/09 04:40:19;;;;;;;17.15;6.63;;;5.60;99.70;;;;;;5035845;28;20033;-67
2022/10/09 04:42:44;;;;;;;21.50;6.88;;;5.60;99.80;;;;;;5029208;28;20113;-68
2022/10/09 04:45:10;;;;;;;23.48;5.82;;;5.60;99.70;;;;;;5038883;28;20068;-68
2022/10/09 04:47:36;;;;;;;28.65;6.93;;;5.60;99.80;;;;;;5046299;28;20112;-68
2022/10/09 04:50:02;;;;;;;19.48;6.53;;;5.70;99.90;;;;;;5045104;28;20029;-67
2022/10/09 04:52:27;;;;;;;21.67;6.93;;;5.70;99.90;;;;;;5033967;28;20045;-68
2022/10/09 04:54:53;;;;;;;25.50;6.70;;;5.70;99.80;;;;;;5045000;28;20094;-68
2022/10/09 04:57:18;;;;;;;24.10;7.22;;;5.60;99.70;;;;;;5032601;28;20587;-68
2022/10/09 04:59:44;;;;;;;32.95;7.28;;;5.60;99.80;;;;;;5049094;28;20209;-68
2022/10/09 05:02:10;;;;;;;21.08;6.60;;;5.60;99.80;;;;;;5043981;28;20037;-68
2022/10/09 05:04:35;;;;;;;28.52;6.82;;;5.60;99.80;;;;;;5047542;28;20033;-68
2022/10/09 05:07:01;;;;;;;21.75;6.60;;;5.60;99.80;;;;;;5040837;28;20338;-68
2022/10/09 05:09:26;;;;;;;20.80;7.20;;;5.60;99.80;;;;;;5038910;28;20100;-68
2022/10/09 05:11:52;;;;;;;27.98;7.35;;;5.60;99.80;;;;;;5051066;28;20068;-68
2022/10/09 05:14:17;;;;;;;25.42;7.88;;;5.60;99.80;;;;;;5047536;28;20051;-68
2022/10/09 05:16:43;;;;;;;25.73;7.70;;;5.50;99.80;;;;;;5044950;28;20334;-67
2022/10/09 05:19:08;;;;;;;21.52;6.88;;;5.60;99.90;;;;;;5048937;28;20108;-68
2022/10/09 05:21:35;;;;;;;22.48;6.85;;;5.50;99.80;;;;;;5047752;28;20132;-68
2022/10/09 05:24:01;;;;;;;29.58;7.82;;;5.50;99.90;;;;;;5045321;28;20029;-68
2022/10/09 05:26:27;;;;;;;21.30;7.13;;;5.60;99.90;;;;;;5042481;28;20387;-67
2022/10/09 05:28:52;;;;;;;19.98;7.43;;;5.60;99.90;;;;;;5046164;28;20036;-69
2022/10/09 05:31:23;;;;;;;30.02;7.70;;;5.50;99.90;;;;;;5037938;28;20097;-67
2022/10/09 05:33:49;;;;;;;34.95;8.77;;;5.60;99.90;;;;;;5047016;28;20128;-67
2022/10/09 05:36:15;;;;;;;27.52;8.13;;;5.60;99.90;;;;;;5040422;28;20091;-67
2022/10/09 05:38:40;;;;;;;28.73;8.32;;;5.50;99.90;;;;;;5042329;28;20036;-68
2022/10/09 05:41:08;;;;;;;26.63;8.27;;;5.50;99.80;;;;;;5042800;28;20124;-67
2022/10/09 05:43:37;;;;;;;22.70;7.25;;;5.50;99.90;;;;;;5044810;28;20129;-68
2022/10/09 05:46:14;;;;;;;21.77;7.82;;;5.40;99.80;;;;;;5043898;28;20025;-67
2022/10/09 05:48:42;;;;;;;25.75;8.55;;;5.50;99.90;;;;;;5035348;28;20020;-67
2022/10/09 05:51:17;;;;;;;36.60;8.48;;;5.60;99.90;;;;;;5041326;28;20040;-68
2022/10/09 05:53:44;;;;;;;23.10;7.88;;;5.50;99.90;;;;;;5033953;28;20043;-68
2022/10/09 05:56:20;;;;;;;32.05;8.25;;;5.50;99.90;;;;;;5039331;28;20043;-67
2022/10/09 05:58:52;;;;;;;28.35;9.57;;;5.50;99.90;;;;;;5044397;28;20421;-67
2022/10/09 06:01:18;;;;;;;28.85;8.50;;;5.60;99.90;;;;;;5042815;28;20064;-68
2022/10/09 06:03:51;;;;;;;36.53;9.32;;;5.60;99.90;;;;;;5035843;28;20484;-67
2022/10/09 06:06:19;;;;;;;29.58;9.18;;;5.60;99.90;;;;;;5042432;28;20022;-68
2022/10/09 06:08:44;;;;;;;31.40;9.45;;;5.60;99.90;;;;;;5040734;28;20028;-68
2022/10/09 06:11:27;;;;;;;25.75;10.18;;;5.60;99.90;;;;;;5044291;28;20047;-68
2022/10/09 06:13:53;;;;;;;28.05;8.80;;;5.70;99.90;;;;;;5043750;28;20056;-68
2022/10/09 06:16:18;;;;;;;34.53;9.70;;;5.70;99.90;;;;;;5041799;28;20035;-68
2022/10/09 06:18:46;;;;;;;32.90;10.27;;;5.70;99.90;;;;;;5045327;28;20033;-68
2022/10/09 06:21:12;;;;;;;35.13;9.32;;;5.70;99.90;;;;;;5041485;28;20037;-68
2022/10/09 06:23:38;;;;;;;31.02;9.98;;;5.70;99.90;;;;;;5033725;28;20034;-69
2022/10/09 06:26:07;;;;;;;35.47;10.07;;;5.70;99.90;;;;;;5038133;28;20029;-70
2022/10/09 06:28:33;;;;;;;28.52;9.90;;;5.80;99.90;;;;;;5038208;28;20039;-67
2022/10/09 06:31:05;;;;;;;37.95;10.10;;;5.80;99.90;;;;;;5037721;28;20049;-68
2022/10/09 06:33:32;;;;;;;37.90;9.65;;;5.90;99.90;;;;;;5039402;28;20456;-67
2022/10/09 06:36:03;;;;;;;38.25;10.98;;;6.00;99.90;;;;;;5045629;28;20368;-67
2022/10/09 06:38:28;;;;;;;39.30;11.45;;;6.00;99.90;;;;;;5041635;28;20055;-71
2022/10/09 06:40:54;;;;;;;35.70;10.75;;;6.00;99.90;;;;;;5047210;28;20056;-67
2022/10/09 06:43:20;;;;;;;44.53;12.18;;;6.10;99.90;;;;;;5046853;28;20470;-66
2022/10/09 06:45:46;;;;;;;45.45;11.10;;;6.10;99.90;;;;;;5046816;28;20021;-67
2022/10/09 06:48:11;;;;;;;36.95;11.38;;;6.20;99.90;;;;;;5047113;28;20037;-68
2022/10/09 06:50:37;;;;;;;31.15;10.80;;;6.20;99.90;;;;;;5047641;28;20120;-67
2022/10/09 06:53:03;;;;;;;35.00;10.73;;;6.30;99.90;;;;;;5043568;28;20077;-67
2022/10/09 06:55:29;;;;;;;38.75;11.40;;;6.30;99.90;;;;;;5041757;28;20508;-67
2022/10/09 06:57:55;;;;;;;43.45;12.63;;;6.40;99.90;;;;;;5048237;28;20120;-67
2022/10/09 07:00:21;;;;;;;42.00;12.55;;;6.40;99.90;;;;;;5044668;28;20031;-68
2022/10/09 07:02:46;;;;;;;41.58;12.00;;;6.50;99.90;;;;;;5047575;28;20075;-68
2022/10/09 07:05:12;;;;;;;38.35;11.85;;;6.60;99.90;;;;;;5049554;28;20056;-68
2022/10/09 07:07:41;;;;;;;42.30;12.98;;;6.50;99.90;;;;;;5048435;28;20045;-68
2022/10/09 07:10:07;;;;;;;37.13;12.77;;;6.60;99.90;;;;;;5041506;28;20087;-68
2022/10/09 07:12:36;;;;;;;33.22;12.10;;;6.70;99.90;;;;;;5038129;28;20094;-67
2022/10/09 07:15:04;;;;;;;38.47;12.95;;;6.70;99.90;;;;;;5041751;28;20041;-68
2022/10/09 07:17:29;;;;;;;38.25;12.98;;;6.70;99.90;;;;;;5043742;28;20457;-68
2022/10/09 07:19:55;;;;;;;46.05;12.65;;;6.80;99.90;;;;;;5044112;28;20125;-67
2022/10/09 07:22:21;;;;;;;47.38;13.05;;;6.80;99.90;;;;;;5043874;28;20084;-67
2022/10/09 07:24:47;;;;;;;36.42;12.82;;;6.90;99.90;;;;;;5042043;28;20104;-67
2022/10/09 07:27:13;;;;;;;40.47;11.35;;;6.90;99.90;;;;;;5042393;28;20461;-68
2022/10/09 07:29:38;;;;;;;41.17;12.40;;;7.00;99.90;;;;;;5036318;28;20059;-67
2022/10/09 07:32:04;;;;;;;41.47;12.90;;;7.00;99.90;;;;;;5050424;28;20116;-69
2022/10/09 07:34:30;;;;;;;47.78;13.25;;;7.10;99.90;;;;;;5043986;28;20033;-68
2022/10/09 07:36:55;;;;;;;45.28;13.07;;;7.10;99.90;;;;;;5038865;28;20037;-67
2022/10/09 07:39:21;;;;;;;44.60;14.18;;;7.20;99.90;;;;;;5042297;28;20116;-70
2022/10/09 07:41:50;;;;;;;42.55;14.10;;;7.20;99.90;;;;;;5041822;28;20509;-67
2022/10/09 07:44:16;;;;;;;43.17;13.82;;;7.30;99.90;;;;;;5044666;28;20033;-67
2022/10/09 07:46:41;;;;;;;40.30;13.35;;;7.40;99.90;;;;;;5040103;28;20097;-66
2022/10/09 07:49:06;;;;;;;41.38;13.07;;;7.40;99.90;;;;;;5040934;28;20373;-67
2022/10/09 07:51:32;;;;;;;41.60;13.25;;;7.60;99.80;;;;;;5044197;28;20029;-67
2022/10/09 07:53:59;;;;;;;51.78;13.60;;;7.60;99.80;;;;;;5033473;28;20361;-67
2022/10/09 07:56:32;;;;;;;41.60;13.45;;;7.80;99.80;;;;;;5037676;28;20079;-67
2022/10/09 07:59:00;;;;;;;35.13;12.20;;;8.00;99.80;;;;;;5032803;28;20038;-67
2022/10/09 08:01:28;;;;;;;51.05;13.85;;;8.10;99.80;;;;;;5060822;28;20123;-67
2022/10/09 08:03:54;;;;;;;45.40;13.40;;;8.30;99.70;;;;;;5041477;28;20437;-70
2022/10/09 08:06:20;;;;;;;44.40;14.32;;;8.50;99.70;;;;;;5042867;28;20033;-66
2022/10/09 08:08:52;;;;;;;46.15;14.02;;;8.60;99.40;;;;;;5030842;28;20044;-67
2022/10/09 08:11:19;;;;;;;40.92;13.70;;;8.80;99.60;;;;;;5045893;28;20093;-67
2022/10/09 08:13:46;;;;;;;49.78;14.07;;;9.00;99.30;;;;;;5048336;28;20123;-66
2022/10/09 08:16:12;;;;;;;41.25;13.52;;;9.10;98.80;;;;;;5047773;28;20178;-67
2022/10/09 08:18:38;;;;;;;47.35;13.27;;;9.30;98.60;;;;;;5040141;28;20211;-68
2022/10/09 08:21:12;;;;;;;48.92;14.13;;;9.60;98.70;;;;;;5041318;28;20185;-67
2022/10/09 08:23:37;;;;;;;45.28;14.13;;;9.70;98.00;;;;;;5041058;28;20105;-68
2022/10/09 08:26:04;;;;;;;49.45;15.00;;;10.00;98.10;;;;;;5043276;28;20440;-67
2022/10/09 08:28:30;;;;;;;36.85;14.27;;;10.20;97.90;;;;;;5044007;28;20072;-67
2022/10/09 08:30:55;;;;;;;37.17;13.90;;;10.10;96.50;;;;;;5043189;28;20052;-67
2022/10/09 08:33:22;;;;;;;42.50;14.48;;;10.30;96.30;;;;;;5046158;28;20528;-67
2022/10/09 08:35:48;;;;;;;38.47;13.98;;;10.60;95.90;;;;;;5043707;28;20082;-67
2022/10/09 08:38:14;;;;;;;41.10;13.55;;;10.70;95.50;;;;;;5039821;28;20029;-68
2022/10/09 08:41:07;;;;;;;36.05;13.18;;;10.60;94.00;;;;;;5036592;28;20385;-66
2022/10/09 08:43:35;;;;;;;37.08;12.20;;;10.90;94.90;;;;;;5041402;28;20410;-67
2022/10/09 08:46:18;;;;;;;28.13;10.65;;;10.90;93.70;;;;;;5037510;28;20479;-67
2022/10/09 08:48:45;;;;;;;37.95;11.77;;;11.00;93.30;;;;;;5038417;28;20635;-67
2022/10/09 08:51:25;;;;;;;33.08;11.13;;;11.30;94.20;;;;;;5038563;28;20468;-68
2022/10/09 08:54:18;;;;;;;30.55;10.40;;;11.40;93.50;;;;;;5040730;28;20431;-67
2022/10/09 08:56:46;;;;;;;21.65;8.18;;;11.30;92.10;;;;;;5043556;28;20513;-66
2022/10/09 08:59:12;;;;;;;19.30;7.80;;;11.50;92.20;;;;;;5044811;28;20039;-66
2022/10/09 09:02:03;;;;;;;17.75;6.85;;;11.50;91.70;;;;;;5043469;28;20037;-66
2022/10/09 09:04:38;;;;;;;23.30;6.57;;;11.60;91.30;;;;;;5035230;28;20037;-68
2022/10/09 09:07:34;;;;;;;13.20;6.00;;;11.70;90.70;;;;;;5043368;28;20124;-67
2022/10/09 09:10:15;;;;;;;15.15;5.75;;;11.90;90.80;;;;;;5043452;28;20090;-67
2022/10/09 09:12:47;;;;;;;;;;;12.10;90.30;;;;;;5038091;28;20073;-66
2022/10/09 09:15:39;;;;;;;13.77;5.47;;;12.20;89.60;;;;;;5040405;28;19909;-66
2022/10/09 09:18:41;;;;;;;12.35;5.65;;;12.10;88.80;;;;;;5042788;28;20037;-69
2022/10/09 09:21:32;;;;;;;12.82;4.70;;;12.30;88.40;;;;;;5045048;28;20170;-67
2022/10/09 09:23:59;;;;;;;;;;;12.40;88.40;;;;;;5044790;28;20119;-66
2022/10/09 09:26:26;;;;;;;12.35;3.95;;;12.60;87.40;;;;;;5044798;28;20012;-66
2022/10/09 09:28:58;;;;;;;13.80;3.65;;;12.60;87.60;;;;;;5043376;28;20040;-67
2022/10/09 09:31:30;;;;;;;17.50;3.13;;;12.70;87.10;;;;;;5042590;28;20044;-67
2022/10/09 09:34:01;;;;;;;13.15;2.95;;;12.90;87.10;;;;;;5039885;28;20120;-68
2022/10/09 09:36:41;;;;;;;8.77;3.40;;;13.00;85.60;;;;;;5043472;28;20116;-68
2022/10/09 09:39:10;;;;;;;11.27;2.63;;;13.10;85.70;;;;;;5046493;28;20045;-66
2022/10/09 09:41:35;;;;;;;9.75;2.92;;;13.40;86.10;;;;;;5041305;28;20081;-67
2022/10/09 09:44:01;;;;;;;9.68;2.45;;;13.40;84.70;;;;;;5037601;28;20104;-66
2022/10/09 09:46:31;;;;;;;11.95;2.88;;;13.40;84.70;;;;;;5046065;28;20060;-67
2022/10/09 09:48:56;;;;;;;12.55;2.78;;;13.50;84.10;;;;;;5035358;28;20357;-71
2022/10/09 09:51:27;;;;;;;11.90;2.38;;;13.50;83.70;;;;;;5045373;28;20043;-67
2022/10/09 09:53:56;;;;;;;8.27;2.17;;;13.60;82.80;;;;;;5040373;28;20400;-68
2022/10/09 09:56:42;;;;;;;9.57;2.47;;;13.70;83.00;;;;;;5040716;28;20108;-67
2022/10/09 09:59:36;;;;;;;8.77;1.95;;;13.70;82.20;;;;;;5040846;28;20763;-72
2022/10/09 10:02:04;;;;;;;7.18;1.90;;;14.10;83.10;;;;;;5034807;28;20041;-68
2022/10/09 10:04:30;;;;;;;5.07;1.98;;;14.00;80.20;;;;;;5038326;28;20336;-67
2022/10/09 10:06:56;;;;;;;7.80;1.85;;;13.70;80.50;;;;;;5047843;28;20051;-68
2022/10/09 10:09:21;;;;;;;9.95;1.98;;;14.00;81.40;;;;;;5045004;28;20045;-67
2022/10/09 10:12:11;;;;;;;8.80;1.85;;;14.20;80.60;;;;;;5043167;28;20108;-68
2022/10/09 10:14:47;;;;;;;7.68;1.65;;;14.70;80.30;;;;;;5053013;28;20020;-67
2022/10/09 10:17:26;;;;;;;7.72;1.75;;;14.90;79.40;;;;;;5053192;28;20033;-68
2022/10/09 10:19:52;;;;;;;7.07;1.58;;;15.10;78.60;;;;;;5049210;28;20520;-68
2022/10/09 10:22:23;;;;;;;7.68;1.60;;;15.10;77.60;;;;;;5051632;28;20112;-68
2022/10/09 10:24:51;;;;;;;10.68;2.22;;;15.20;76.80;;;;;;5044002;28;20040;-68
2022/10/09 10:27:24;;;;;;;7.07;1.45;;;15.30;76.80;;;;;;5048639;28;20040;-68
2022/10/09 10:29:55;;;;;;;9.82;1.70;;;15.50;75.80;;;;;;5049114;28;20037;-67
2022/10/09 10:32:31;;;;;;;;;;;15.70;75.80;;;;;;5041978;28;20384;-68
2022/10/09 10:35:10;;;;;;;9.65;1.88;;;15.50;75.90;;;;;;5050402;28;19913;-68
2022/10/09 10:37:56;;;;;;;6.28;1.65;;;15.70;74.00;;;;;;5043461;28;20433;-67
2022/10/09 10:40:24;;;;;;;5.05;1.00;;;15.50;74.30;;;;;;5034018;28;20582;-67
2022/10/09 10:43:08;;;;;;;5.88;1.60;;;15.40;73.90;;;;;;5035100;28;20430;-68
2022/10/09 10:45:39;;;;;;;4.70;1.23;;;15.00;74.00;;;;;;5051193;28;20100;-67
2022/10/09 10:48:11;;;;;;;7.43;1.38;;;15.50;75.00;;;;;;5042562;28;20463;-66
2022/10/09 10:50:45;;;;;;;6.85;1.40;;;15.30;75.30;;;;;;5041435;28;20028;-66
2022/10/09 10:53:40;;;;;;;5.82;1.02;;;15.50;75.30;;;;;;5053085;28;20036;-66
2022/10/09 10:56:14;;;;;;;14.63;5.55;;;14.90;74.60;;;;;;5043602;28;20056;-66
2022/10/09 10:58:56;;;;;;;10.60;1.85;;;14.50;75.60;;;;;;5048777;28;20060;-66
2022/10/09 11:01:43;;;;;;;9.10;1.30;;;15.00;75.30;;;;;;5054562;28;20053;-66
2022/10/09 11:04:20;;;;;;;10.40;1.88;;;15.00;74.30;;;;;;5049073;28;20033;-67
2022/10/09 11:07:23;;;;;;;7.03;1.60;;;15.20;74.50;;;;;;5049756;28;20022;-66
2022/10/09 11:10:01;;;;;;;8.38;1.52;;;14.90;74.80;;;;;;5043325;28;20037;-67
2022/10/09 11:12:35;;;;;;;6.50;2.90;;;15.30;73.00;;;;;;5043695;28;20034;-68
2022/10/09 11:15:50;;;;;;;3.67;0.95;;;15.60;73.30;;;;;;5036664;28;20357;-67
2022/10/09 11:18:43;;;;;;;4.68;1.20;;;16.10;70.10;;;;;;5036564;28;20040;-67
2022/10/09 11:21:41;;;;;;;4.72;1.17;;;16.50;70.50;;;;;;5046356;28;20036;-67
2022/10/09 11:24:36;;;;;;;10.15;1.30;;;16.50;65.60;;;;;;5039897;28;20059;-67
2022/10/09 11:27:25;;;;;;;6.47;1.42;;;17.00;67.50;;;;;;5046076;28;20021;-67
2022/10/09 11:30:04;;;;;;;6.43;1.40;;;17.40;65.80;;;;;;5037396;28;20057;-67
2022/10/09 11:32:48;;;;;;;6.13;1.20;;;17.30;65.30;;;;;;5031779;28;20034;-67
2022/10/09 11:35:22;;;;;;;5.40;1.38;;;17.50;63.80;;;;;;5036421;28;20048;-69
2022/10/09 11:37:58;;;;;;;10.27;1.77;;;17.70;64.50;;;;;;5050267;28;20694;-67
2022/10/09 11:40:30;;;;;;;4.80;1.10;;;17.60;63.60;;;;;;5047358;28;20033;-67
2022/10/09 11:43:22;;;;;;;9.32;1.17;;;18.20;62.40;;;;;;5033692;28;20117;-67
2022/10/09 11:46:09;;;;;;;4.25;0.88;;;18.10;62.30;;;;;;5026118;28;20028;-67
2022/10/09 11:49:01;;;;;;;5.07;1.40;;;18.10;60.20;;;;;;5041526;28;20021;-67
2022/10/09 11:51:51;;;;;;;5.68;1.27;;;17.80;61.20;;;;;;5051038;28;20025;-68
2022/10/09 11:54:20;;;;;;;8.00;1.67;;;17.90;60.10;;;;;;5047054;28;20033;-67
2022/10/09 11:56:58;;;;;;;5.93;1.35;;;18.20;60.40;;;;;;5044344;28;20072;-70
2022/10/09 11:59:29;;;;;;;7.13;1.00;;;18.40;58.60;;;;;;5039096;28;20029;-67
2022/10/09 12:01:56;;;;;;;9.55;1.40;;;19.10;59.60;;;;;;5046836;28;20029;-67
2022/10/09 12:04:31;;;;;;;5.50;1.00;;;18.60;58.30;;;;;;5040930;28;20037;-66
2022/10/09 12:06:59;;;;;;;7.68;1.50;;;18.50;57.40;;;;;;5039562;28;20484;-67
2022/10/09 12:09:40;;;;;;;4.68;1.17;;;19.00;57.60;;;;;;5042307;28;20142;-67
2022/10/09 12:12:15;;;;;;;4.85;1.10;;;19.30;55.80;;;;;;5045870;28;20033;-67
2022/10/09 12:14:42;;;;;;;4.80;1.10;;;19.50;54.60;;;;;;5045248;28;20108;-66
2022/10/09 12:17:33;;;;;;;5.72;1.10;;;18.60;55.40;;;;;;5046321;28;20032;-66
2022/10/09 12:20:14;;;;;;;8.77;1.90;;;17.50;59.20;;;;;;5040241;28;20337;-67
2022/10/09 12:22:43;;;;;;;3.88;0.98;;;17.60;58.90;;;;;;5041815;28;20060;-66
2022/10/09 12:25:29;;;;;;;5.03;1.30;;;17.90;58.70;;;;;;5041504;28;20079;-68
2022/10/09 12:27:58;;;;;;;4.95;1.13;;;17.80;60.10;;;;;;5043960;28;20085;-67
2022/10/09 12:30:32;;;;;;;6.40;1.30;;;17.20;60.70;;;;;;5043769;28;20136;-70
2022/10/09 12:33:18;;;;;;;5.75;1.30;;;16.80;62.80;;;;;;5041508;28;20037;-67
2022/10/09 12:35:46;;;;;;;9.38;1.23;;;18.10;62.10;;;;;;5046246;28;20082;-67
2022/10/09 12:38:24;;;;;;;8.48;1.33;;;18.40;57.70;;;;;;5042462;28;20025;-68
2022/10/09 12:40:51;;;;;;;8.82;2.22;;;18.50;57.80;;;;;;5040193;28;20270;-68
2022/10/09 12:43:19;;;;;;;4.30;1.17;;;18.40;58.70;;;;;;5047005;28;20032;-67
2022/10/09 12:45:47;;;;;;;9.13;2.20;;;18.00;58.60;;;;;;5043209;28;20052;-67
2022/10/09 12:48:13;;;;;;;5.10;1.70;;;18.20;59.60;;;;;;5047563;28;20414;-68
2022/10/09 12:50:39;;;;;;;3.88;1.10;;;18.60;56.70;;;;;;5045229;28;20077;-67
2022/10/09 12:53:14;;;;;;;6.45;1.20;;;19.30;56.70;;;;;;5043125;28;20304;-67
2022/10/09 12:55:42;;;;;;;3.47;1.02;;;19.00;56.00;;;;;;5044892;28;20040;-67
2022/10/09 12:58:17;;;;;;;7.75;1.63;;;18.30;57.20;;;;;;5037351;28;20037;-68
2022/10/09 13:00:46;;;;;;;5.13;1.35;;;18.70;54.90;;;;;;5047471;28;20044;-69
2022/10/09 13:03:39;;;;;;;6.90;2.10;;;19.40;54.80;;;;;;5045836;28;20034;-66
2022/10/09 13:06:11;;;;;;;9.60;3.13;;;20.00;52.80;;;;;;5037183;28;20044;-68